createdAt,value
2018-08-25T00:00:46.197Z,23.3
2018-08-25T00:01:35.893Z,23.3
2018-08-25T00:02:26.797Z,23.3
2018-08-25T00:03:16.089Z,23.3
2018-08-25T00:04:05.319Z,23.3
2018-08-25T00:04:57.098Z,23.3
2018-08-25T00:05:46.269Z,23.3
2018-08-25T00:06:36.622Z,23.3
2018-08-25T00:07:26.690Z,23.2
2018-08-25T00:08:16.142Z,23.3
2018-08-25T00:09:07.115Z,23.2
2018-08-25T00:09:56.232Z,23.2
2018-08-25T00:10:48.052Z,23.2
2018-08-25T00:11:37.487Z,23.3
2018-08-25T00:12:27.030Z,23.2
2018-08-25T00:31:23.217Z,23.1
2018-08-25T00:32:13.559Z,23.1
2018-08-25T00:33:03.086Z,23.1
2018-08-25T00:33:53.671Z,23.1
2018-08-25T00:34:43.451Z,23.1
2018-08-25T00:35:33.786Z,23.1
2018-08-25T00:36:23.527Z,23.1
2018-08-25T00:37:13.929Z,23.1
2018-08-25T00:38:03.426Z,23.1
2018-08-25T00:38:54.295Z,23.1
2018-08-25T00:39:44.662Z,23.1
2018-08-25T00:40:34.168Z,23.1
2018-08-25T00:41:25.327Z,23.1
2018-08-25T00:42:13.826Z,23.1
2018-08-25T00:43:03.541Z,23.1
2018-08-25T00:43:54.424Z,23.1
2018-08-25T00:44:43.975Z,23.1
2018-08-25T00:45:33.425Z,23.1
2018-08-25T00:46:24.600Z,23.1
2018-08-25T00:47:14.963Z,23.1
2018-08-25T00:48:04.704Z,23.1
2018-08-25T00:48:54.522Z,23.1
2018-08-25T00:49:44.955Z,23.1
2018-08-25T00:50:35.249Z,23.1
2018-08-25T00:51:24.414Z,23.1
2018-08-25T00:52:14.543Z,23.1
2018-08-25T00:53:04.306Z,23
2018-08-25T00:53:54.652Z,23.1
2018-08-25T00:54:44.727Z,23
2018-08-25T00:55:35.718Z,23.1
2018-08-25T00:56:25.150Z,23.1
2018-08-25T00:57:15.474Z,23.1
2018-08-25T00:58:04.939Z,23
2018-08-25T00:58:55.108Z,23
2018-08-25T00:59:45.465Z,23
2018-08-25T01:00:35.458Z,23
2018-08-25T01:01:26.329Z,23
2018-08-25T01:02:16.424Z,23
2018-08-25T01:03:04.761Z,23
2018-08-25T01:03:55.680Z,23
2018-08-25T01:04:45.778Z,23
2018-08-25T01:05:35.593Z,23
2018-08-25T01:06:25.109Z,23
2018-08-25T01:07:15.593Z,23
2018-08-25T01:08:06.121Z,23
2018-08-25T01:08:56.383Z,22.9
2018-08-25T01:09:46.467Z,23
2018-08-25T01:10:36.778Z,23
2018-08-25T01:11:26.540Z,22.9
2018-08-25T01:12:15.647Z,22.9
2018-08-25T01:13:06.726Z,22.9
2018-08-25T01:13:55.699Z,23
2018-08-25T01:14:46.008Z,22.9
2018-08-25T01:15:36.594Z,22.9
2018-08-25T01:16:26.375Z,22.9
2018-08-25T01:17:16.409Z,22.9
2018-08-25T01:18:05.410Z,22.9
2018-08-25T01:18:56.887Z,22.9
2018-08-25T01:19:46.483Z,22.9
2018-08-25T01:20:37.311Z,22.9
2018-08-25T01:21:26.234Z,22.9
2018-08-25T01:22:17.628Z,22.9
2018-08-25T01:23:07.765Z,22.9
2018-08-25T01:23:57.796Z,22.9
2018-08-25T01:24:47.091Z,22.9
2018-08-25T01:25:36.853Z,22.9
2018-08-25T01:26:28.038Z,22.9
2018-08-25T01:27:16.968Z,22.9
2018-08-25T01:28:07.267Z,22.9
2018-08-25T01:28:57.379Z,22.9
2018-08-25T01:29:46.560Z,22.9
2018-08-25T01:30:38.406Z,22.9
2018-08-25T01:31:27.561Z,22.9
2018-08-25T01:32:17.573Z,22.9
2018-08-25T01:33:08.163Z,22.9
2018-08-25T01:33:58.288Z,22.9
2018-08-25T01:34:48.100Z,22.9
2018-08-25T01:35:38.194Z,22.9
2018-08-25T01:36:27.628Z,22.9
2018-08-25T01:37:17.470Z,22.9
2018-08-25T01:38:08.618Z,22.9
2018-08-25T01:38:58.943Z,22.9
2018-08-25T01:39:48.783Z,22.9
2018-08-25T01:40:38.804Z,22.9
2018-08-25T01:41:29.176Z,22.9
2018-08-25T01:42:18.155Z,22.9
2018-08-25T01:43:09.640Z,22.9
2018-08-25T01:43:59.626Z,22.9
2018-08-25T01:44:49.967Z,22.9
2018-08-25T01:45:38.646Z,22.8
2018-08-25T01:46:29.295Z,22.9
2018-08-25T01:47:19.100Z,22.8
2018-08-25T01:48:08.846Z,22.8
2018-08-25T01:48:58.124Z,22.8
2018-08-25T01:49:48.768Z,22.8
2018-08-25T01:50:39.383Z,22.8
2018-08-25T01:51:28.090Z,22.8
2018-08-25T01:52:19.471Z,22.8
2018-08-25T01:53:10.039Z,22.8
2018-08-25T01:53:59.860Z,22.8
2018-08-25T01:54:49.985Z,22.8
2018-08-25T01:55:39.242Z,22.8
2018-08-25T01:56:29.314Z,22.8
2018-08-25T01:57:19.277Z,22.8
2018-08-25T01:58:09.461Z,22.8
2018-08-25T01:59:00.317Z,22.8
2018-08-25T01:59:49.597Z,22.8
2018-08-25T02:00:40.230Z,22.8
2018-08-25T02:01:30.281Z,22.8
2018-08-25T02:02:19.782Z,22.8
2018-08-25T02:03:10.089Z,22.8
2018-08-25T02:04:00.366Z,22.8
2018-08-25T02:04:50.189Z,22.8
2018-08-25T02:05:40.206Z,22.8
2018-08-25T02:06:29.856Z,22.8
2018-08-25T02:07:20.156Z,22.8
2018-08-25T02:08:10.227Z,22.8
2018-08-25T02:09:00.607Z,22.8
2018-08-25T02:09:50.357Z,22.8
2018-08-25T02:10:39.929Z,22.8
2018-08-25T02:11:30.512Z,22.8
2018-08-25T02:12:19.117Z,22.8
2018-08-25T02:13:11.195Z,22.8
2018-08-25T02:14:00.905Z,22.8
2018-08-25T02:14:50.711Z,22.8
2018-08-25T02:15:41.291Z,22.8
2018-08-25T02:16:31.159Z,22.8
2018-08-25T02:17:21.172Z,22.8
2018-08-25T02:18:11.252Z,22.8
2018-08-25T02:19:01.803Z,22.8
2018-08-25T02:19:51.604Z,22.8
2018-08-25T02:20:41.132Z,22.8
2018-08-25T02:21:31.470Z,22.8
2018-08-25T02:22:21.897Z,22.8
2018-08-25T02:23:11.926Z,22.7
2018-08-25T02:24:01.906Z,22.7
2018-08-25T02:24:51.506Z,22.7
2018-08-25T02:25:41.569Z,22.7
2018-08-25T02:26:31.911Z,22.7
2018-08-25T02:27:21.667Z,22.7
2018-08-25T02:28:12.371Z,22.7
2018-08-25T02:29:01.881Z,22.7
2018-08-25T02:29:50.861Z,22.7
2018-08-25T02:30:41.509Z,22.7
2018-08-25T02:31:31.249Z,22.7
2018-08-25T02:32:21.903Z,22.7
2018-08-25T02:33:11.858Z,22.7
2018-08-25T02:34:02.776Z,22.7
2018-08-25T02:34:52.289Z,22.7
2018-08-25T02:35:43.187Z,22.7
2018-08-25T02:36:32.110Z,22.6
2018-08-25T02:37:22.511Z,22.7
2018-08-25T02:38:12.902Z,22.7
2018-08-25T02:39:02.017Z,22.7
2018-08-25T02:39:52.901Z,22.7
2018-08-25T02:40:42.497Z,22.6
2018-08-25T02:41:31.967Z,22.6
2018-08-25T02:42:23.756Z,22.7
2018-08-25T02:43:12.660Z,22.6
2018-08-25T02:44:02.206Z,22.6
2018-08-25T02:44:52.839Z,22.6
2018-08-25T02:45:43.491Z,22.6
2018-08-25T02:46:32.788Z,22.6
2018-08-25T02:47:24.089Z,22.6
2018-08-25T02:48:13.655Z,22.6
2018-08-25T02:49:03.593Z,22.6
2018-08-25T02:49:52.891Z,22.6
2018-08-25T02:50:43.768Z,22.6
2018-08-25T02:51:33.620Z,22.6
2018-08-25T02:52:24.115Z,22.6
2018-08-25T02:53:13.763Z,22.6
2018-08-25T02:54:02.908Z,22.6
2018-08-25T02:54:54.619Z,22.6
2018-08-25T02:55:44.466Z,22.6
2018-08-25T02:56:34.537Z,22.6
2018-08-25T02:57:24.595Z,22.6
2018-08-25T02:58:13.255Z,22.6
2018-08-25T02:59:04.448Z,22.6
2018-08-25T02:59:54.527Z,22.6
2018-08-25T03:00:44.851Z,22.6
2018-08-25T03:01:34.391Z,22.6
2018-08-25T03:02:24.394Z,22.6
2018-08-25T03:03:14.208Z,22.6
2018-08-25T03:04:04.837Z,22.6
2018-08-25T03:04:55.424Z,22.6
2018-08-25T03:05:44.632Z,22.6
2018-08-25T03:06:35.025Z,22.6
2018-08-25T03:07:25.408Z,22.6
2018-08-25T03:08:15.158Z,22.6
2018-08-25T03:09:05.510Z,22.6
2018-08-25T03:09:55.824Z,22.6
2018-08-25T03:10:46.195Z,22.6
2018-08-25T03:11:35.122Z,22.6
2018-08-25T03:12:26.041Z,22.6
2018-08-25T03:13:14.960Z,22.6
2018-08-25T03:14:05.645Z,22.6
2018-08-25T03:14:54.905Z,22.6
2018-08-25T03:15:44.918Z,22.6
2018-08-25T03:16:35.891Z,22.6
2018-08-25T03:17:26.210Z,22.6
2018-08-25T03:18:16.146Z,22.6
2018-08-25T03:19:05.665Z,22.5
2018-08-25T03:19:56.610Z,22.6
2018-08-25T03:20:45.377Z,22.6
2018-08-25T03:21:35.895Z,22.5
2018-08-25T03:22:25.351Z,22.5
2018-08-25T03:23:16.631Z,22.5
2018-08-25T03:24:06.427Z,22.5
2018-08-25T03:24:56.727Z,22.5
2018-08-25T03:25:45.112Z,22.5
2018-08-25T03:26:37.059Z,22.5
2018-08-25T03:27:26.911Z,22.5
2018-08-25T03:28:16.992Z,22.5
2018-08-25T03:29:07.034Z,22.5
2018-08-25T03:29:56.283Z,22.5
2018-08-25T03:30:46.804Z,22.5
2018-08-25T03:31:37.220Z,22.5
2018-08-25T03:32:27.428Z,22.5
2018-08-25T03:33:18.096Z,22.5
2018-08-25T03:34:06.861Z,22.5
2018-08-25T03:34:56.638Z,22.5
2018-08-25T03:35:47.949Z,22.5
2018-08-25T03:36:36.754Z,22.5
2018-08-25T03:37:27.118Z,22.5
2018-08-25T03:38:18.763Z,22.5
2018-08-25T03:39:08.061Z,22.5
2018-08-25T03:39:58.406Z,22.5
2018-08-25T03:40:48.458Z,22.5
2018-08-25T03:41:37.678Z,22.4
2018-08-25T03:42:28.031Z,22.5
2018-08-25T03:43:17.072Z,22.5
2018-08-25T03:44:08.544Z,22.5
2018-08-25T03:44:57.615Z,22.4
2018-08-25T03:45:47.792Z,22.4
2018-08-25T03:46:37.789Z,22.4
2018-08-25T03:47:27.918Z,22.5
2018-08-25T03:48:18.165Z,22.4
2018-08-25T03:49:07.703Z,22.4
2018-08-25T03:49:58.440Z,22.4
2018-08-25T03:50:49.455Z,22.4
2018-08-25T03:51:38.178Z,22.4
2018-08-25T03:52:29.382Z,22.4
2018-08-25T03:53:19.500Z,22.4
2018-08-25T03:54:07.778Z,22.4
2018-08-25T03:54:59.871Z,22.4
2018-08-25T03:55:49.873Z,22.4
2018-08-25T03:56:39.644Z,22.4
2018-08-25T03:57:29.472Z,22.4
2018-08-25T03:58:17.641Z,22.4
2018-08-25T03:59:09.928Z,22.4
2018-08-25T03:59:59.407Z,22.4
2018-08-25T04:00:50.275Z,22.4
2018-08-25T04:01:42.569Z,22.4
2018-08-25T04:02:29.824Z,22.4
2018-08-25T04:03:18.802Z,22.4
2018-08-25T04:04:10.263Z,22.4
2018-08-25T04:05:00.008Z,22.4
2018-08-25T04:05:50.354Z,22.4
2018-08-25T04:06:40.682Z,22.4
2018-08-25T04:07:29.642Z,22.4
2018-08-25T04:08:20.275Z,22.4
2018-08-25T04:09:10.905Z,22.4
2018-08-25T04:09:59.538Z,22.4
2018-08-25T04:10:50.776Z,22.4
2018-08-25T04:11:41.198Z,22.4
2018-08-25T04:12:29.721Z,22.4
2018-08-25T04:13:20.446Z,22.4
2018-08-25T04:14:11.236Z,22.4
2018-08-25T04:15:03.090Z,22.4
2018-08-25T04:15:50.594Z,22.4
2018-08-25T04:16:40.333Z,22.4
2018-08-25T04:17:31.350Z,22.4
2018-08-25T04:18:21.080Z,22.4
2018-08-25T04:19:11.436Z,22.4
2018-08-25T04:20:00.960Z,22.4
2018-08-25T04:20:51.257Z,22.4
2018-08-25T04:21:41.640Z,22.4
2018-08-25T04:22:31.938Z,22.4
2018-08-25T04:23:21.535Z,22.4
2018-08-25T04:24:11.204Z,22.4
2018-08-25T04:25:01.630Z,22.4
2018-08-25T04:25:50.923Z,22.4
2018-08-25T04:26:42.036Z,22.4
2018-08-25T04:27:31.043Z,22.4
2018-08-25T04:28:21.561Z,22.4
2018-08-25T04:29:11.984Z,22.3
2018-08-25T04:30:02.283Z,22.4
2018-08-25T04:30:52.028Z,22.4
2018-08-25T04:31:41.338Z,22.4
2018-08-25T04:32:32.715Z,22.3
2018-08-25T04:33:23.541Z,22.4
2018-08-25T04:34:12.603Z,22.3
2018-08-25T04:35:02.101Z,22.3
2018-08-25T04:35:52.445Z,22.4
2018-08-25T04:36:43.020Z,22.4
2018-08-25T04:37:32.480Z,22.3
2018-08-25T04:38:22.385Z,22.3
2018-08-25T04:39:13.275Z,22.3
2018-08-25T04:40:03.332Z,22.3
2018-08-25T04:40:52.844Z,22.3
2018-08-25T04:41:42.585Z,22.3
2018-08-25T04:42:33.754Z,22.3
2018-08-25T05:00:31.831Z,22.3
2018-08-25T05:01:21.175Z,22.3
2018-08-25T05:02:10.829Z,22.3
2018-08-25T05:03:01.555Z,22.3
2018-08-25T05:03:51.672Z,22.3
2018-08-25T05:04:41.321Z,22.3
2018-08-25T05:05:32.023Z,22.3
2018-08-25T05:06:21.791Z,22.3
2018-08-25T05:07:11.563Z,22.3
2018-08-25T05:08:01.109Z,22.3
2018-08-25T05:08:51.511Z,22.3
2018-08-25T05:09:41.654Z,22.3
2018-08-25T05:10:32.398Z,22.3
2018-08-25T05:11:22.429Z,22.3
2018-08-25T05:12:11.709Z,22.3
2018-08-25T05:13:02.624Z,22.3
2018-08-25T05:13:52.057Z,22.3
2018-08-25T05:14:42.484Z,22.3
2018-08-25T05:15:32.811Z,22.3
2018-08-25T05:16:22.575Z,22.3
2018-08-25T05:17:13.005Z,22.3
2018-08-25T05:18:02.412Z,22.3
2018-08-25T05:18:52.239Z,22.3
2018-08-25T05:19:42.880Z,22.3
2018-08-25T05:20:32.860Z,22.3
2018-08-25T05:21:22.722Z,22.2
2018-08-25T05:22:13.509Z,22.3
2018-08-25T05:23:03.424Z,22.3
2018-08-25T05:23:52.933Z,22.3
2018-08-25T05:24:43.238Z,22.2
2018-08-25T05:25:33.290Z,22.3
2018-08-25T05:26:23.328Z,22.3
2018-08-25T05:27:13.118Z,22.3
2018-08-25T05:28:03.501Z,22.3
2018-08-25T05:28:52.975Z,22.3
2018-08-25T05:29:43.887Z,22.3
2018-08-25T05:30:33.620Z,22.3
2018-08-25T05:31:23.146Z,22.3
2018-08-25T05:32:13.781Z,22.3
2018-08-25T05:33:03.311Z,22.2
2018-08-25T05:33:53.899Z,22.3
2018-08-25T05:34:43.753Z,22.3
2018-08-25T05:35:32.903Z,22.3
2018-08-25T05:36:24.411Z,22.3
2018-08-25T05:37:13.870Z,22.2
2018-08-25T05:38:03.976Z,22.3
2018-08-25T05:38:54.313Z,22.3
2018-08-25T05:39:44.394Z,22.3
2018-08-25T05:40:34.152Z,22.3
2018-08-25T05:41:24.530Z,22.3
2018-08-25T05:42:13.980Z,22.3
2018-08-25T05:43:03.752Z,22.2
2018-08-25T05:43:54.964Z,22.2
2018-08-25T05:44:44.023Z,22.3
2018-08-25T05:45:34.922Z,22.2
2018-08-25T05:46:24.301Z,22.3
2018-08-25T05:47:15.524Z,22.3
2018-08-25T05:48:04.477Z,22.3
2018-08-25T05:48:55.121Z,22.3
2018-08-25T05:49:43.812Z,22.3
2018-08-25T05:50:35.491Z,22.3
2018-08-25T05:51:26.213Z,22.3
2018-08-25T05:52:16.198Z,22.2
2018-08-25T05:53:05.983Z,22.2
2018-08-25T05:53:55.845Z,22.3
2018-08-25T05:54:45.519Z,22.2
2018-08-25T05:55:36.146Z,22.2
2018-08-25T05:56:25.930Z,22.3
2018-08-25T05:57:15.699Z,22.3
2018-08-25T05:58:06.139Z,22.3
2018-08-25T05:58:56.240Z,22.3
2018-08-25T05:59:46.781Z,22.2
2018-08-25T06:00:36.279Z,22.3
2018-08-25T06:01:26.033Z,22.2
2018-08-25T06:02:16.423Z,22.3
2018-08-25T06:03:06.723Z,22.2
2018-08-25T06:03:56.515Z,22.3
2018-08-25T06:04:46.213Z,22.2
2018-08-25T06:05:36.666Z,22.3
2018-08-25T06:06:26.825Z,22.3
2018-08-25T06:07:16.995Z,22.3
2018-08-25T06:08:06.375Z,22.3
2018-08-25T06:08:57.186Z,22.3
2018-08-25T06:09:46.944Z,22.2
2018-08-25T06:10:37.318Z,22.3
2018-08-25T06:11:25.688Z,22.2
2018-08-25T06:12:16.837Z,22.3
2018-08-25T06:13:07.165Z,22.3
2018-08-25T06:13:57.358Z,22.3
2018-08-25T06:14:47.872Z,22.3
2018-08-25T06:15:37.621Z,22.3
2018-08-25T06:16:27.185Z,22.3
2018-08-25T06:17:17.742Z,22.3
2018-08-25T06:18:07.827Z,22.3
2018-08-25T06:18:57.831Z,22.3
2018-08-25T06:19:47.647Z,22.3
2018-08-25T06:20:37.758Z,22.3
2018-08-25T06:21:27.315Z,22.3
2018-08-25T06:22:17.905Z,22.3
2018-08-25T06:23:07.437Z,22.3
2018-08-25T06:23:57.282Z,22.3
2018-08-25T06:24:48.108Z,22.3
2018-08-25T06:25:37.578Z,22.3
2018-08-25T06:26:27.405Z,22.3
2018-08-25T06:27:18.705Z,22.3
2018-08-25T06:28:08.630Z,22.3
2018-08-25T06:28:58.368Z,22.3
2018-08-25T06:29:49.986Z,22.3
2018-08-25T06:30:38.593Z,22.3
2018-08-25T06:31:28.107Z,22.3
2018-08-25T06:32:18.423Z,22.3
2018-08-25T06:33:08.728Z,22.3
2018-08-25T06:33:57.997Z,22.3
2018-08-25T06:34:48.578Z,22.3
2018-08-25T06:35:38.596Z,22.3
2018-08-25T06:36:28.974Z,22.3
2018-08-25T06:37:18.791Z,22.3
2018-08-25T06:38:09.033Z,22.3
2018-08-25T06:38:59.118Z,22.3
2018-08-25T06:39:49.459Z,22.3
2018-08-25T06:40:39.252Z,22.3
2018-08-25T06:41:28.541Z,22.3
2018-08-25T06:42:19.384Z,22.3
2018-08-25T06:43:08.653Z,22.3
2018-08-25T06:43:59.274Z,22.3
2018-08-25T06:44:48.472Z,22.3
2018-08-25T06:45:39.087Z,22.3
2018-08-25T06:46:29.787Z,22.3
2018-08-25T06:47:19.244Z,22.3
2018-08-25T06:48:09.571Z,22.3
2018-08-25T06:49:00.462Z,22.3
2018-08-25T06:49:49.114Z,22.3
2018-08-25T06:50:40.351Z,22.3
2018-08-25T06:51:29.531Z,22.3
2018-08-25T06:52:20.191Z,22.3
2018-08-25T06:53:10.576Z,22.3
2018-08-25T06:53:59.184Z,22.3
2018-08-25T06:54:49.247Z,22.3
2018-08-25T06:55:40.137Z,22.3
2018-08-25T06:56:30.264Z,22.3
2018-08-25T06:57:19.466Z,22.3
2018-08-25T06:58:10.528Z,22.3
2018-08-25T06:59:00.813Z,22.3
2018-08-25T06:59:50.571Z,22.3
2018-08-25T07:00:40.067Z,22.3
2018-08-25T07:01:30.604Z,22.3
2018-08-25T07:02:19.613Z,22.3
2018-08-25T07:03:10.559Z,22.3
2018-08-25T07:04:00.362Z,22.3
2018-08-25T07:04:51.108Z,22.3
2018-08-25T07:05:41.238Z,22.3
2018-08-25T07:06:31.101Z,22.3
2018-08-25T07:07:21.197Z,22.3
2018-08-25T07:08:10.850Z,22.3
2018-08-25T07:09:00.918Z,22.3
2018-08-25T07:09:52.111Z,22.3
2018-08-25T07:10:41.829Z,22.3
2018-08-25T07:11:30.880Z,22.3
2018-08-25T07:12:20.892Z,22.3
2018-08-25T07:13:11.763Z,22.3
2018-08-25T07:14:01.547Z,22.3
2018-08-25T07:14:52.168Z,22.3
2018-08-25T07:15:42.234Z,22.3
2018-08-25T07:16:31.671Z,22.3
2018-08-25T07:17:21.514Z,22.3
2018-08-25T07:18:11.864Z,22.3
2018-08-25T07:19:03.579Z,22.4
2018-08-25T07:19:52.004Z,22.3
2018-08-25T07:20:42.601Z,22.3
2018-08-25T07:21:32.176Z,22.3
2018-08-25T07:22:22.263Z,22.3
2018-08-25T07:23:12.824Z,22.3
2018-08-25T07:24:00.922Z,22.3
2018-08-25T07:24:51.605Z,22.3
2018-08-25T07:25:42.688Z,22.3
2018-08-25T07:26:32.664Z,22.3
2018-08-25T07:27:21.734Z,22.3
2018-08-25T07:28:13.182Z,22.4
2018-08-25T07:29:02.662Z,22.3
2018-08-25T07:29:51.706Z,22.4
2018-08-25T07:30:43.407Z,22.4
2018-08-25T07:31:33.672Z,22.3
2018-08-25T07:32:24.402Z,22.4
2018-08-25T07:33:13.109Z,22.4
2018-08-25T07:34:02.274Z,22.4
2018-08-25T07:34:54.015Z,22.4
2018-08-25T07:35:43.812Z,22.4
2018-08-25T07:36:33.535Z,22.4
2018-08-25T07:37:23.338Z,22.4
2018-08-25T07:38:14.003Z,22.4
2018-08-25T07:39:03.197Z,22.3
2018-08-25T07:39:53.256Z,22.4
2018-08-25T07:40:44.408Z,22.3
2018-08-25T07:41:33.741Z,22.4
2018-08-25T07:42:22.981Z,22.4
2018-08-25T07:43:14.261Z,22.4
2018-08-25T07:44:04.241Z,22.4
2018-08-25T07:44:53.426Z,22.4
2018-08-25T07:45:42.834Z,22.4
2018-08-25T07:46:33.539Z,22.4
2018-08-25T07:47:24.680Z,22.4
2018-08-25T07:48:14.833Z,22.4
2018-08-25T07:49:03.433Z,22.4
2018-08-25T07:49:53.770Z,22.4
2018-08-25T07:50:44.595Z,22.4
2018-08-25T07:51:34.705Z,22.4
2018-08-25T07:52:23.635Z,22.4
2018-08-25T07:53:14.918Z,22.4
2018-08-25T07:54:04.509Z,22.4
2018-08-25T07:54:54.689Z,22.4
2018-08-25T07:55:45.318Z,22.4
2018-08-25T07:56:35.047Z,22.4
2018-08-25T07:57:25.149Z,22.4
2018-08-25T07:58:14.764Z,22.4
2018-08-25T07:59:06.170Z,22.4
2018-08-25T07:59:55.292Z,22.4
2018-08-25T08:00:45.470Z,22.4
2018-08-25T08:01:35.245Z,22.4
2018-08-25T08:02:25.839Z,22.4
2018-08-25T08:03:15.609Z,22.4
2018-08-25T08:04:05.426Z,22.4
2018-08-25T08:04:56.442Z,22.4
2018-08-25T08:05:47.052Z,22.4
2018-08-25T08:06:35.019Z,22.4
2018-08-25T08:07:25.904Z,22.4
2018-08-25T08:08:14.727Z,22.4
2018-08-25T08:09:06.149Z,22.4
2018-08-25T08:09:55.574Z,22.4
2018-08-25T08:10:45.071Z,22.4
2018-08-25T08:11:35.067Z,22.4
2018-08-25T08:12:28.436Z,22.4
2018-08-25T08:13:16.471Z,22.4
2018-08-25T08:14:06.545Z,22.4
2018-08-25T08:14:56.283Z,22.4
2018-08-25T08:15:46.169Z,22.4
2018-08-25T08:16:36.685Z,22.4
2018-08-25T08:17:26.708Z,22.4
2018-08-25T08:18:15.721Z,22.4
2018-08-25T08:19:06.906Z,22.4
2018-08-25T08:19:56.964Z,22.4
2018-08-25T08:20:46.523Z,22.4
2018-08-25T08:21:36.456Z,22.4
2018-08-25T08:22:26.623Z,22.4
2018-08-25T08:23:16.922Z,22.4
2018-08-25T08:24:04.383Z,22.4
2018-08-25T08:24:57.333Z,22.4
2018-08-25T08:25:47.190Z,22.4
2018-08-25T08:26:36.535Z,22.4
2018-08-25T08:27:27.181Z,22.5
2018-08-25T08:28:17.913Z,22.5
2018-08-25T08:29:07.119Z,22.5
2018-08-25T08:29:57.945Z,22.5
2018-08-25T08:30:47.474Z,22.5
2018-08-25T08:31:38.132Z,22.5
2018-08-25T08:32:27.908Z,22.5
2018-08-25T08:33:18.625Z,22.5
2018-08-25T08:34:07.467Z,22.5
2018-08-25T08:34:57.534Z,22.5
2018-08-25T08:35:47.906Z,22.5
2018-08-25T08:36:38.491Z,22.5
2018-08-25T08:37:27.537Z,22.5
2018-08-25T08:38:18.700Z,22.5
2018-08-25T08:39:07.945Z,22.5
2018-08-25T08:39:57.291Z,22.5
2018-08-25T08:40:47.902Z,22.5
2018-08-25T08:41:37.585Z,22.5
2018-08-25T08:42:30.715Z,22.5
2018-08-25T08:43:18.557Z,22.5
2018-08-25T08:44:08.332Z,22.5
2018-08-25T08:44:58.382Z,22.5
2018-08-25T08:45:48.497Z,22.6
2018-08-25T08:46:38.246Z,22.5
2018-08-25T08:47:29.425Z,22.5
2018-08-25T08:48:19.172Z,22.6
2018-08-25T08:49:09.238Z,22.6
2018-08-25T08:50:00.079Z,22.6
2018-08-25T08:50:49.379Z,22.6
2018-08-25T08:51:40.009Z,22.6
2018-08-25T08:52:30.308Z,22.6
2018-08-25T08:53:18.984Z,22.6
2018-08-25T08:54:09.525Z,22.6
2018-08-25T08:54:59.981Z,22.6
2018-08-25T08:55:49.744Z,22.6
2018-08-25T08:56:40.107Z,22.6
2018-08-25T08:57:29.797Z,22.6
2018-08-25T08:58:21.487Z,22.6
2018-08-25T09:15:03.215Z,22.6
2018-08-25T09:15:52.482Z,22.6
2018-08-25T09:16:41.754Z,22.6
2018-08-25T09:17:33.485Z,22.6
2018-08-25T09:18:24.211Z,22.6
2018-08-25T09:19:13.652Z,22.6
2018-08-25T09:20:03.968Z,22.6
2018-08-25T09:20:53.677Z,22.6
2018-08-25T09:21:43.532Z,22.6
2018-08-25T09:22:32.793Z,22.6
2018-08-25T09:23:23.995Z,22.6
2018-08-25T09:24:13.530Z,22.6
2018-08-25T09:25:03.847Z,22.6
2018-08-25T09:25:54.397Z,22.6
2018-08-25T09:26:44.155Z,22.6
2018-08-25T09:27:36.348Z,22.6
2018-08-25T09:28:24.317Z,22.6
2018-08-25T09:29:14.225Z,22.6
2018-08-25T09:30:03.889Z,22.6
2018-08-25T09:30:55.067Z,22.6
2018-08-25T09:31:44.881Z,22.6
2018-08-25T09:32:34.635Z,22.6
2018-08-25T09:33:24.024Z,22.6
2018-08-25T09:34:14.566Z,22.6
2018-08-25T09:35:04.861Z,22.7
2018-08-25T09:35:57.411Z,22.6
2018-08-25T09:36:49.399Z,22.6
2018-08-25T09:37:35.055Z,22.6
2018-08-25T09:38:24.524Z,22.7
2018-08-25T09:39:15.233Z,22.6
2018-08-25T09:40:04.968Z,22.6
2018-08-25T09:40:55.029Z,22.6
2018-08-25T09:41:46.358Z,22.6
2018-08-25T09:42:34.647Z,22.6
2018-08-25T09:43:24.914Z,22.7
2018-08-25T09:44:15.841Z,22.6
2018-08-25T09:45:05.561Z,22.7
2018-08-25T09:45:56.501Z,22.7
2018-08-25T09:46:44.881Z,22.7
2018-08-25T09:47:35.504Z,22.7
2018-08-25T09:48:25.656Z,22.7
2018-08-25T09:49:16.208Z,22.6
2018-08-25T09:50:05.984Z,22.7
2018-08-25T09:50:56.575Z,22.7
2018-08-25T09:51:46.413Z,22.7
2018-08-25T09:52:36.000Z,22.7
2018-08-25T09:53:26.442Z,22.7
2018-08-25T09:54:16.619Z,22.7
2018-08-25T09:55:06.177Z,22.7
2018-08-25T09:55:56.163Z,22.7
2018-08-25T09:56:46.184Z,22.7
2018-08-25T09:57:36.542Z,22.7
2018-08-25T09:58:27.165Z,22.7
2018-08-25T09:59:17.612Z,22.7
2018-08-25T10:00:06.827Z,22.7
2018-08-25T10:00:57.394Z,22.7
2018-08-25T10:01:46.923Z,22.7
2018-08-25T10:02:37.270Z,22.7
2018-08-25T10:03:27.879Z,22.7
2018-08-25T10:04:16.849Z,22.7
2018-08-25T10:05:07.836Z,22.7
2018-08-25T10:05:57.564Z,22.7
2018-08-25T10:06:47.621Z,22.7
2018-08-25T10:07:37.423Z,22.7
2018-08-25T10:08:28.005Z,22.7
2018-08-25T10:09:17.786Z,22.7
2018-08-25T10:10:08.406Z,22.7
2018-08-25T10:11:00.206Z,22.7
2018-08-25T10:11:48.258Z,22.7
2018-08-25T10:12:37.794Z,22.7
2018-08-25T10:13:28.138Z,22.7
2018-08-25T10:14:18.476Z,22.7
2018-08-25T10:15:08.867Z,22.7
2018-08-25T10:15:58.390Z,22.7
2018-08-25T10:16:49.135Z,22.7
2018-08-25T10:17:37.995Z,22.7
2018-08-25T10:18:28.245Z,22.7
2018-08-25T10:19:18.545Z,22.7
2018-08-25T10:20:08.113Z,22.7
2018-08-25T10:20:58.725Z,22.7
2018-08-25T10:21:48.195Z,22.8
2018-08-25T10:22:38.178Z,22.7
2018-08-25T10:23:28.844Z,22.8
2018-08-25T10:24:18.152Z,22.8
2018-08-25T10:25:09.650Z,22.8
2018-08-25T10:25:59.597Z,22.7
2018-08-25T10:26:49.314Z,22.8
2018-08-25T10:27:38.937Z,22.7
2018-08-25T10:28:29.343Z,22.8
2018-08-25T10:29:19.687Z,22.8
2018-08-25T10:30:09.702Z,22.8
2018-08-25T10:30:58.414Z,22.8
2018-08-25T10:31:48.776Z,22.8
2018-08-25T10:32:38.234Z,22.8
2018-08-25T10:33:28.792Z,22.8
2018-08-25T10:34:19.200Z,22.8
2018-08-25T10:35:10.134Z,22.8
2018-08-25T10:36:00.259Z,22.8
2018-08-25T10:36:50.522Z,22.8
2018-08-25T10:37:39.724Z,22.8
2018-08-25T10:38:30.349Z,22.8
2018-08-25T10:39:19.870Z,22.8
2018-08-25T10:40:10.246Z,22.8
2018-08-25T10:40:59.244Z,22.8
2018-08-25T10:41:53.748Z,22.8
2018-08-25T10:42:40.437Z,22.8
2018-08-25T10:43:30.554Z,22.8
2018-08-25T10:44:19.496Z,22.8
2018-08-25T10:45:10.663Z,22.8
2018-08-25T10:46:00.115Z,22.8
2018-08-25T10:46:49.312Z,22.8
2018-08-25T10:47:40.210Z,22.8
2018-08-25T10:48:30.827Z,22.8
2018-08-25T10:49:21.249Z,22.8
2018-08-25T10:50:10.743Z,22.8
2018-08-25T10:51:00.793Z,22.8
2018-08-25T10:51:50.285Z,22.8
2018-08-25T10:52:41.569Z,22.8
2018-08-25T10:53:30.729Z,22.8
2018-08-25T10:54:21.372Z,22.8
2018-08-25T10:55:10.800Z,22.8
2018-08-25T10:56:01.704Z,22.8
2018-08-25T10:56:51.515Z,22.8
2018-08-25T10:57:42.364Z,22.8
2018-08-25T10:58:31.577Z,22.8
2018-08-25T10:59:21.407Z,22.8
2018-08-25T11:00:13.326Z,22.8
2018-08-25T11:01:05.936Z,22.8
2018-08-25T11:01:51.672Z,22.8
2018-08-25T11:02:41.424Z,22.8
2018-08-25T11:03:32.603Z,22.8
2018-08-25T11:04:22.406Z,22.8
2018-08-25T11:05:12.175Z,22.8
2018-08-25T11:06:02.048Z,22.8
2018-08-25T11:06:52.570Z,22.8
2018-08-25T11:07:42.832Z,22.8
2018-08-25T11:08:32.167Z,22.8
2018-08-25T11:09:22.505Z,22.8
2018-08-25T11:10:12.278Z,22.8
2018-08-25T11:11:02.346Z,22.8
2018-08-25T11:11:52.213Z,22.8
2018-08-25T11:12:42.483Z,22.8
2018-08-25T11:13:33.146Z,22.8
2018-08-25T11:14:23.159Z,22.8
2018-08-25T11:15:12.716Z,22.8
2018-08-25T11:16:03.029Z,22.8
2018-08-25T11:16:53.144Z,22.8
2018-08-25T11:17:42.865Z,22.8
2018-08-25T11:18:33.257Z,22.8
2018-08-25T11:19:23.625Z,22.8
2018-08-25T11:20:12.866Z,22.8
2018-08-25T11:21:03.146Z,22.8
2018-08-25T11:21:52.671Z,22.8
2018-08-25T11:22:43.649Z,22.8
2018-08-25T11:23:33.305Z,22.8
2018-08-25T11:24:22.772Z,22.8
2018-08-25T11:25:13.869Z,22.8
2018-08-25T11:26:02.396Z,22.8
2018-08-25T11:26:53.655Z,22.8
2018-08-25T11:27:43.165Z,22.8
2018-08-25T11:28:33.156Z,22.8
2018-08-25T11:29:26.913Z,22.8
2018-08-25T11:30:13.897Z,22.8
2018-08-25T11:31:03.592Z,22.8
2018-08-25T11:31:54.493Z,22.8
2018-08-25T11:32:43.776Z,22.8
2018-08-25T11:33:33.534Z,22.8
2018-08-25T11:34:24.724Z,22.8
2018-08-25T11:35:14.785Z,22.8
2018-08-25T11:36:04.272Z,22.8
2018-08-25T11:36:54.839Z,22.8
2018-08-25T11:37:46.737Z,22.8
2018-08-25T11:38:34.529Z,22.8
2018-08-25T11:39:24.855Z,22.8
2018-08-25T11:40:14.957Z,22.8
2018-08-25T11:41:04.447Z,22.8
2018-08-25T11:41:54.801Z,22.8
2018-08-25T11:42:44.531Z,22.8
2018-08-25T11:43:35.506Z,22.8
2018-08-25T11:44:25.012Z,22.8
2018-08-25T11:45:14.781Z,22.8
2018-08-25T11:46:04.486Z,22.8
2018-08-25T11:46:55.479Z,22.8
2018-08-25T11:47:44.669Z,22.8
2018-08-25T11:48:35.583Z,22.8
2018-08-25T11:49:24.560Z,22.8
2018-08-25T11:50:15.436Z,22.8
2018-08-25T11:51:05.813Z,22.8
2018-08-25T11:51:55.818Z,22.8
2018-08-25T11:52:46.277Z,22.8
2018-08-25T11:53:35.401Z,22.8
2018-08-25T11:54:26.376Z,22.8
2018-08-25T11:55:15.843Z,22.9
2018-08-25T11:56:06.801Z,22.8
2018-08-25T11:56:56.276Z,22.9
2018-08-25T11:57:44.864Z,22.8
2018-08-25T11:58:35.841Z,22.8